If you wish to contribute or participate in the discussions about articles you are invited to join SKYbrary as a registered user

 Actions

Kärdla

From SKYbrary Wiki

EEKA
Airport
ICAO: EEKA
Summary
Name Kärdla
Region Europe
Territory Estonia EE.gif
Location Kärdla
Serving
Coordinates 58° 59' 27.61" N, 22° 49' 53.20" E
Runways
Designator Length Width Surface ROPS
14/32 1520 m4,986.877 ft
30 m98.425 ft
ASP /


METAR
Observation EEKA 231050Z 01005KT 320V050 CAVOK 15/08 Q1029
Station Kardla
Date/Time 23 April 2019 10:50:00
Wind direction 10°
Wind speed 05 kts
Lowest cloud amount clouds and visibility OK
Temperature 15°C
Dew point 8°C
Humidity 62%
QNH 1029 hPa
Weather condition n/a

Kärdla Airport (IATA: KDL, ICAO: EEKA) is an airport in Estonia. The airport is situated 7 km3.78 nm
7,000 m
22,965.879 ft
east of the town of Kärdla on Hiiumaa island.